• Join FlightAware (Why Join?)
  • Login
  • US Flag 
12:17PM EDT


 

Airport Tracker/Info


-or-


 

Live Flight TrackerFlight Track Log ✈ FD204 ✈ 10-May-2013 ✈ YCBA / CAZ - YSDU / DBO

Flight Track Log - Related Links

Times and Time Zones

All times are in EDT time to prevent confusion due to time zone crossing. See the FD204 flight status page for this flight to view local times or setup timezone preferences in your user account.

Time Position Orientation Groundspeed Altitude Reporting Facility
EDT Latitude Longitude Course Direction KTS MPH feet Rate Location/Type
09:20AM -31.5805 145.9553 107° East 19,000  Level Aus ATC (Calculated)
09:22AM -31.6130 146.0817 107° East  Level FlightAware Approximate
09:23AM -31.6294 146.1460 107° East  Level FlightAware Approximate
09:23AM -31.6170 146.0976 107° East 19,000  Level Aus ATC (Calculated)
09:25AM -31.6493 146.2240 107° East  Level FlightAware Approximate
09:25AM -31.6647 146.2845 107° East 19,000  Level Aus ATC (Calculated)
09:26AM -31.6657 146.2884 107° East  Level FlightAware Approximate
09:27AM -31.6835 146.3585 107° East  Level FlightAware Approximate
09:28AM -31.6998 146.4229 107° East  Level FlightAware Approximate
09:29AM -31.7161 146.4873 107° East  Level FlightAware Approximate
09:30AM -31.7324 146.5517 107° East  Level FlightAware Approximate
09:30AM -31.7417 146.5887 109° East 19,000  Level Aus ATC (Calculated)
09:32AM -31.7470 146.6070 107° East 234 269 17,000 -1,020 Descending FlightAware
09:32AM -31.7590 146.6580 105° East 234 269 17,000  Level FlightAware
09:33AM -31.7730 146.7100 108° East 234 269 17,000  Level FlightAware
09:34AM -31.7850 146.7580 106° East 233 268 17,000  Level FlightAware
09:34AM -31.7980 146.8140 105° East 233 268 17,000  Level FlightAware
09:35AM -31.8110 146.8630 107° East 234 269 17,000  Level FlightAware
09:35AM -31.8211 146.9060 106° East 19,000  Climbing Aus ATC (Calculated)
09:36AM -31.8240 146.9180 107° East 235 270 17,000 -1,680 Descending FlightAware
09:36AM -31.8211 146.9060 106° East 19,000  Climbing Aus ATC (Calculated)
09:37AM -31.8360 146.9660 106° East 235 270 17,000 -1,560 Descending FlightAware
09:37AM -31.8490 147.0160 106° East 235 270 17,000  Level FlightAware
09:38AM -31.8620 147.0680 106° East 234 269 17,000  Level FlightAware
09:38AM -31.8683 147.0967 106° East 19,000  Climbing Aus ATC (Calculated)
09:39AM -31.8740 147.1200 105° East 234 269 17,000 -1,800 Descending FlightAware
09:39AM -31.8880 147.1740 105° East 235 270 17,000  Level FlightAware
09:40AM -31.9118 147.2754 285° West 200  Descending Aus ATC (Calculated)
09:40AM -31.9000 147.2250 105° East 235 270 17,000 21,420 Climbing FlightAware
09:41AM -31.9120 147.2740 106° East 234 269 17,000  Level FlightAware
09:41AM -31.9250 147.3270 106° East 234 269 17,000  Level FlightAware
09:42AM -31.9370 147.3780 106° East 235 270 17,000  Level FlightAware
09:43AM -31.9480 147.4240 106° East 233 268 17,000  Level FlightAware
09:44AM -31.9620 147.4830 106° East 233 268 17,000  Level FlightAware
09:44AM -31.9705 147.5189 110° East 200  Descending Aus ATC (Calculated)
09:44AM -31.9740 147.5300 106° East 233 268 17,000 19,380 Climbing FlightAware
09:45AM -31.9870 147.5850 106° East 232 267 17,000 -120 Level FlightAware
09:46AM -31.9990 147.6370 105° East 239 275 16,900 -900 Descending FlightAware
09:46AM -32.0130 147.6960 106° East 258 297 15,800 -1,440 Descending FlightAware
09:47AM -32.0260 147.7510 106° East 259 298 14,900 -1,080 Descending FlightAware
09:47AM -32.0344 147.7879 106° East 258 297 14,700 -1,380 Descending Aus ATC (RADAR)
09:48AM -32.0400 147.8060 106° East 260 299 14,000 -1,740 Descending FlightAware
09:48AM -32.0540 147.8680 105° East 260 299 12,900 -1,680 Descending FlightAware
09:49AM -32.0670 147.9230 106° East 270 311 11,700 -1,740 Descending FlightAware
09:50AM -32.0800 147.9800 105° East 261 300 10,600 -1,560 Descending FlightAware
09:50AM -32.0900 148.0210 106° East 256 295 9,900 -1,320 Descending FlightAware
09:50AM -32.1029 148.0770 286° West 200 -1,200 Descending Aus ATC (Calculated)
09:51AM -32.0990 148.0610 106° East 252 290 9,300 10,620 Climbing FlightAware
09:51AM -32.1070 148.0930 106° East 249 287 8,700 -1,320 Descending FlightAware
09:52AM -32.1160 148.1320 105° East 245 282 8,100 -1,200 Descending FlightAware
09:52AM -32.1210 148.1510 107° East 242 278 7,800 -1,380 Descending FlightAware
09:52AM -32.1300 148.1890 106° East 240 276 7,100 -1,320 Descending FlightAware
09:53AM -32.1469 148.2646 285° West 200 -1,200 Descending Aus ATC (Calculated)
09:53AM -32.1370 148.2200 106° East 239 275 6,600 10,320 Climbing FlightAware
09:53AM -32.1460 148.2590 105° East 239 275 5,900 -1,320 Descending FlightAware
09:54AM -32.1530 148.2890 105° East 237 273 5,400 -1,200 Descending FlightAware
09:54AM -32.1620 148.3280 105° East 236 272 4,800 -1,320 Descending FlightAware
09:55AM -32.1700 148.3610 106° East 234 269 4,200 -1,200 Descending FlightAware
09:56AM -32.1850 148.4250 105° East 234 269 3,200 -1,200 Descending FlightAware
09:57AM -32.2000 148.4880 106° East 178 205 2,100 -1,080 Descending FlightAware
09:57AM -32.2050 148.5130 103° East 151 174 1,700 -720 Descending FlightAware
09:57AM -32.2110 148.5220 128° Southeast 144 166 1,600 -540 Descending FlightAware
09:58AM -32.2260 148.5350 144° Southeast 121 139 1,300 -540 Descending FlightAware
09:58AM -32.2320 148.5430 132° Southeast 112 129 1,200 -720 Descending FlightAware
09:58AM -32.2330 148.5490 101° East 112 129 1,000 -780 Descending FlightAware
09:58AM -32.2167 148.5748 227° Southwest -600 Descending Aus ATC (Calculated)
09:59AM -32.2260 148.5630 59° Northeast 96 110 700 1,380 Climbing FlightAware
09:59AM -32.2240 148.5660 52° Northeast 96 110 600 -1,200 Descending FlightAware